Terminal Aerodrome Forecast
Issued by NWS Sterling, VA

Home | Current Version | Previous Version | Text Only | Print | Product List | Glossary On
Versions: 1 2 3 4 5 6 7 8 9 10 11 12 13 14 15 16
586
FTUS41 KLWX 300535
TAFCHO
TAF
KCHO 300535Z 3006/0106 19004KT P6SM SCT250
     FM300900 20004KT 4SM BR SCT100
     FM301500 19007KT P6SM SCT140
     FM301900 19011KT P6SM FEW050 SCT200
     FM010200 19007KT P6SM FEW040 FEW250
     FM010400 19007KT P6SM SCT040=

USA.gov is the U.S. government's official web portal to all federal, state and local government web resources and services.